createdAt,value
2023-05-11T00:04:00.022Z,12.34
2023-05-11T00:09:33.140Z,12.39
2023-05-11T00:15:58.889Z,12.43
2023-05-11T00:21:46.969Z,12.28
2023-05-11T00:28:14.684Z,12.12
2023-05-11T00:58:05.915Z,11.80
2023-05-11T01:04:25.901Z,11.65
2023-05-11T01:11:02.964Z,11.72
2023-05-11T01:17:49.309Z,11.69
2023-05-11T01:32:00.388Z,11.66
2023-05-11T01:38:46.034Z,11.71
2023-05-11T02:03:38.912Z,11.27
2023-05-11T02:10:25.880Z,11.18
2023-05-11T02:30:13.241Z,10.63
2023-05-11T02:37:01.673Z,10.60
2023-05-11T02:57:07.632Z,10.33
2023-05-11T03:03:46.302Z,10.28
2023-05-11T03:24:21.176Z,9.60
2023-05-11T03:30:47.860Z,9.62
2023-05-11T03:55:14.853Z,9.66
2023-05-11T04:01:47.845Z,9.61
2023-05-11T04:07:51.350Z,9.85
2023-05-11T04:14:17.798Z,10.19
2023-05-11T04:19:59.566Z,10.16
2023-05-11T04:32:01.803Z,10.45
2023-05-11T04:37:40.162Z,10.57
2023-05-11T04:44:05.684Z,10.60
2023-05-11T05:28:43.210Z,12.81
2023-05-11T05:35:14.318Z,13.09
2023-05-11T05:41:03.151Z,13.54
2023-05-11T06:06:20.527Z,14.22
2023-05-11T06:26:04.202Z,14.81
2023-05-11T06:44:52.867Z,14.94
2023-05-11T06:51:30.190Z,15.24
2023-05-11T07:02:47.977Z,16.39
2023-05-11T07:08:19.185Z,16.73
2023-05-11T07:14:17.471Z,16.89
2023-05-11T07:20:19.945Z,17.00
2023-05-11T07:26:16.149Z,17.22
2023-05-11T07:32:07.013Z,17.52
2023-05-11T07:37:38.683Z,17.68
2023-05-11T07:43:29.230Z,17.81
2023-05-11T07:49:03.351Z,17.98
2023-05-11T07:55:09.687Z,18.30
2023-05-11T08:01:10.111Z,18.46
2023-05-11T08:07:32.805Z,18.54
2023-05-11T08:13:07.246Z,18.76
2023-05-11T08:18:43.513Z,19.05
2023-05-11T08:24:56.887Z,19.36
2023-05-11T08:30:55.462Z,19.65
2023-05-11T08:36:34.101Z,19.70
2023-05-11T08:42:26.884Z,19.81
2023-05-11T08:48:04.443Z,20.13
2023-05-11T08:54:31.932Z,20.32
2023-05-11T08:59:57.166Z,20.43
2023-05-11T09:06:14.007Z,20.35
2023-05-11T09:11:59.547Z,20.62
2023-05-11T09:17:48.426Z,20.71
2023-05-11T09:24:04.638Z,21.10
2023-05-11T09:29:40.100Z,21.46
2023-05-11T09:35:29.119Z,21.08
2023-05-11T09:41:23.973Z,20.82
2023-05-11T09:48:13.384Z,20.72
2023-05-11T09:54:29.061Z,20.80
2023-05-11T10:32:13.383Z,21.10
2023-05-11T10:44:54.589Z,21.61
2023-05-11T10:51:49.693Z,21.67
2023-05-11T10:57:23.789Z,21.59
2023-05-11T11:03:20.421Z,21.57
2023-05-11T11:27:13.197Z,21.94
2023-05-11T11:33:40.836Z,21.83
2023-05-11T11:39:27.185Z,21.89
2023-05-11T11:46:04.713Z,21.79
2023-05-11T11:51:44.957Z,21.83
2023-05-11T11:58:11.734Z,22.06
2023-05-11T12:04:33.793Z,22.09
2023-05-11T12:10:11.637Z,22.16
2023-05-11T12:16:34.354Z,22.17
2023-05-11T12:22:09.275Z,22.26
2023-05-11T12:28:13.387Z,22.23
2023-05-11T12:34:31.374Z,22.15
2023-05-11T12:40:49.470Z,22.08
2023-05-11T12:46:50.448Z,22.11
2023-05-11T12:52:28.933Z,22.17
2023-05-11T12:58:52.294Z,22.16
2023-05-11T13:05:23.344Z,22.27
2023-05-11T13:10:51.388Z,22.42
2023-05-11T13:17:17.787Z,22.63
2023-05-11T13:23:32.695Z,22.46
2023-05-11T13:29:49.964Z,22.55
2023-05-11T13:50:04.393Z,22.18
2023-05-11T14:03:02.418Z,21.93
2023-05-11T14:28:37.737Z,21.90
2023-05-11T14:41:41.999Z,21.60
2023-05-11T15:00:59.440Z,21.46
2023-05-11T15:07:45.889Z,21.44
2023-05-11T15:27:17.682Z,21.24
2023-05-11T15:40:19.291Z,21.23
2023-05-11T15:46:22.869Z,21.05
2023-05-11T15:53:09.050Z,20.93
2023-05-11T16:24:41.313Z,20.58
2023-05-11T16:30:22.299Z,20.51
2023-05-11T16:36:09.502Z,20.55
2023-05-11T16:42:14.191Z,20.76
2023-05-11T16:47:38.989Z,20.81
2023-05-11T16:53:07.426Z,20.67
2023-05-11T16:58:54.054Z,20.77
2023-05-11T17:04:39.817Z,20.76
2023-05-11T17:10:13.444Z,20.60
2023-05-11T17:15:42.426Z,20.43
2023-05-11T17:21:12.737Z,20.17
2023-05-11T17:26:46.961Z,19.90
2023-05-11T17:32:23.546Z,19.71
2023-05-11T17:38:21.461Z,19.56
2023-05-11T17:43:54.894Z,19.35
2023-05-11T17:49:40.122Z,19.17
2023-05-11T17:55:08.977Z,19.01
2023-05-11T18:00:42.399Z,18.80
2023-05-11T18:06:20.018Z,18.58
2023-05-11T18:11:45.654Z,18.34
2023-05-11T18:17:20.743Z,18.10
2023-05-11T18:23:09.472Z,17.88
2023-05-11T18:28:37.847Z,17.65
2023-05-11T18:34:04.277Z,17.41
2023-05-11T18:40:42.386Z,17.18
2023-05-11T19:00:26.607Z,16.63
2023-05-11T19:06:36.306Z,16.44
2023-05-11T19:12:05.033Z,16.28
2023-05-11T19:18:02.707Z,16.13
2023-05-11T19:23:48.908Z,15.92
2023-05-11T19:46:15.099Z,15.20
2023-05-11T19:51:40.523Z,15.06
2023-05-11T19:57:05.812Z,14.87
2023-05-11T20:02:43.658Z,14.71
2023-05-11T20:08:31.381Z,14.57
2023-05-11T20:14:18.535Z,14.42
2023-05-11T20:20:36.263Z,14.28
2023-05-11T20:26:12.920Z,14.10
2023-05-11T20:31:40.501Z,14.00
2023-05-11T20:37:22.493Z,13.94
2023-05-11T20:42:56.989Z,13.87
2023-05-11T20:48:40.382Z,13.72
2023-05-11T20:54:07.846Z,13.56
2023-05-11T21:05:04.360Z,13.29
2023-05-11T21:10:29.281Z,13.20
2023-05-11T21:15:57.200Z,13.14
2023-05-11T21:21:22.448Z,13.10
2023-05-11T21:26:49.893Z,13.04
2023-05-11T21:32:41.117Z,12.97
2023-05-11T21:38:26.131Z,12.89
2023-05-11T21:43:53.362Z,12.74
2023-05-11T21:49:23.758Z,12.59
2023-05-11T21:54:48.832Z,12.49
2023-05-11T22:00:18.929Z,12.40
2023-05-11T22:05:43.757Z,12.33
2023-05-11T22:11:08.413Z,12.21
2023-05-11T22:16:36.303Z,12.10
2023-05-11T22:22:04.839Z,11.99
2023-05-11T22:27:30.402Z,11.86
2023-05-11T22:32:55.842Z,11.76
2023-05-11T22:38:20.637Z,11.66
2023-05-11T22:43:45.257Z,11.55
2023-05-11T22:49:10.028Z,11.41
2023-05-11T22:54:44.015Z,11.29
2023-05-11T23:00:13.002Z,11.18
2023-05-11T23:05:38.611Z,11.10
2023-05-11T23:11:03.625Z,11.02
2023-05-11T23:16:33.996Z,10.92
2023-05-11T23:21:58.696Z,10.81
2023-05-11T23:27:23.887Z,10.70
2023-05-11T23:32:52.153Z,10.62
2023-05-11T23:38:21.277Z,10.57
2023-05-11T23:43:46.380Z,10.51
2023-05-11T23:49:11.150Z,10.47
2023-05-11T23:54:35.838Z,10.40
